weerbeeld Almere Meer informatie weerbeeld Almere


Onweer radar Meer informatie blitzortung!


Regen radar Meer informatie rain snow radar


Apparatuur in gebruik:

Davis VP2

Meteohub

ALIX 1D

Web-Oke


Mist van: 16-12-2018 19:00 tot: 17-12-2018 00:00 waarschuwing voor: Mist niveau: Geel info button

Weather Underground Historische gegevens

Dagelijkse Samenvatting december 16, 2018 Eenheden:  Metrisch    Engels   Beide
« Vorige Dag
Volgende Dag »
Dagelijkse Wekelijkse Maandelijkse Jaarlijkse Aangepaste
  Huidig: Hoog: Laag: Gemiddeld:
Temperatuur: -16 °C -17.8 °C -18.2 °C -17.2 °C
Dauwpunt: -16.5 °C -17.8 °C -19.8 °C -17.9 °C
Vochtigheid: 94 % Humidity % 73 % 91 %
Wind snelheid: 5.1 km/h 0 km/h 2.6 km/h 13.5 km/h
Windvlaag: 15.6 km/h 0 km/h - -
Wind:SSE - - SSE
Luchtdruk: 34246 hPa 0 hPa 0 hPa -
Neerslag: 58.42 mm      
Historical Graphs
 
 
Tabel voor december 16, 2018
Tijd Temperatuur Dauwpunt Luchtdruk Wind Wind snelheid Windvlaag Vochtigheid Regenval per uur
-17.8 °C -17.8 °C 0 hPa Calm     Humidity % 0 mm
00:02 -17.6 °C -19.8 °C 34269.7 hPa East 25.9 km/h 44.1 km/h 74 % 0 mm
00:07 -17.6 °C -19.8 °C 34269.7 hPa ESE 18.2 km/h 54.4 km/h 74 % 0 mm
00:17 -17.5 °C -19.8 °C 34269.7 hPa East 7.7 km/h 54.4 km/h 74 % 0 mm
00:22 -17.4 °C -19.7 °C 34269.7 hPa SE 28.5 km/h 54.4 km/h 74 % 0 mm
00:27 -17.4 °C -19.7 °C 34256.2 hPa SSE 12.9 km/h 57 km/h 74 % 0 mm
00:32 -17.4 °C -19.8 °C 34269.7 hPa ESE 38.8 km/h 57 km/h 73 % 0 mm
00:37 -17.4 °C -19.8 °C 34256.2 hPa South 28.5 km/h 51.8 km/h 73 % 0 mm
00:42 -17.4 °C -19.8 °C 34256.2 hPa SSE 15.6 km/h 51.8 km/h 73 % 0 mm
00:47 -17.4 °C -19.8 °C 34256.2 hPa SE 25.9 km/h 54.4 km/h 73 % 0 mm
00:52 -17.4 °C -19.7 °C 34256.2 hPa ESE 20.8 km/h 54.4 km/h 74 % 0 mm
00:57 -17.5 °C -19.5 °C 34256.2 hPa SE 38.8 km/h 72.6 km/h 77 % 0 mm
01:02 -17.7 °C -19.3 °C 34246 hPa ESE 28.5 km/h 72.6 km/h 81 % 0 mm
01:07 -17.9 °C -19.3 °C 34246 hPa SSE 18.2 km/h 75.2 km/h 84 % 0 mm
01:12 -18 °C -19.2 °C 34246 hPa East 33.6 km/h 75.2 km/h 86 % 0 mm
01:17 -18.1 °C -19.2 °C 34246 hPa SE 31.1 km/h 75.2 km/h 87 % 0 mm
01:22 -18.2 °C -19.1 °C 34235.8 hPa ESE 20.8 km/h 59.5 km/h 88 % 0 mm
01:27 -18.2 °C -19.1 °C 34235.8 hPa SE 15.6 km/h 59.5 km/h 88 % 0 mm
01:32 -18.2 °C -19.1 °C 34235.8 hPa SSE 10.3 km/h 59.5 km/h 88 % 0 mm
01:37 -18.2 °C -19.1 °C 34235.8 hPa ESE 23.3 km/h 49.2 km/h 89 % 0 mm
01:42 -18.2 °C -19.1 °C 34222.3 hPa ESE 28.5 km/h 49.2 km/h 89 % 0 mm
01:47 -18.2 °C -19.1 °C 34222.3 hPa ESE 33.6 km/h 49.2 km/h 88 % 0 mm
01:52 -18.1 °C -19.1 °C 34222.3 hPa SE 20.8 km/h 51.8 km/h 88 % 0 mm
01:57 -18.1 °C -19 °C 34222.3 hPa East 23.3 km/h 51.8 km/h 89 % 0 mm
02:02 -18.1 °C -19 °C 34222.3 hPa SE 36.2 km/h 51.8 km/h 89 % 0 mm
02:07 -18.1 °C -19 °C 34222.3 hPa ESE 25.9 km/h 49.2 km/h 89 % 0 mm
02:12 -18.1 °C -18.9 °C 34212.1 hPa ESE 44.1 km/h 51.8 km/h 89 % 0 mm
02:17 -18.1 °C -19 °C 34222.3 hPa ESE 25.9 km/h 51.8 km/h 88 % 0 mm
02:22 -18.1 °C -18.9 °C 34222.3 hPa South 25.9 km/h 51.8 km/h 89 % 0 mm
02:27 -18.1 °C -18.9 °C 34222.3 hPa SSE 25.9 km/h 51.8 km/h 89 % 0 mm
02:32 -18.1 °C -19 °C 34222.3 hPa SE 10.3 km/h 51.8 km/h 89 % 0 mm
02:37 -18.1 °C -19 °C 34222.3 hPa SE 36.2 km/h 44.1 km/h 89 % 0 mm
02:42 -18.1 °C -18.9 °C 34212.1 hPa ESE 23.3 km/h 46.7 km/h 90 % 0 mm
02:47 -18.1 °C -18.9 °C 34212.1 hPa SSE 33.6 km/h 46.7 km/h 90 % 0 mm
02:52 -18.2 °C -18.9 °C 34212.1 hPa SSE 23.3 km/h 46.7 km/h 90 % 0 mm
02:57 -18.2 °C -18.9 °C 34212.1 hPa ESE 20.8 km/h 44.1 km/h 90 % 0 mm
03:02 -18.2 °C -18.9 °C 34198.6 hPa SE 23.3 km/h 41.4 km/h 90 % 0 mm
03:07 -18.2 °C -18.9 °C 34198.6 hPa ESE 23.3 km/h 46.7 km/h 90 % 0 mm
03:12 -18.2 °C -18.9 °C 34198.6 hPa ESE 36.2 km/h 51.8 km/h 90 % 0 mm
03:17 -18.2 °C -18.9 °C 34198.6 hPa SE 20.8 km/h 51.8 km/h 90 % 0 mm
03:27 -18.2 °C -18.9 °C 34188.4 hPa East 15.6 km/h 49.2 km/h 90 % 0 mm
03:32 -18.2 °C -18.9 °C 34188.4 hPa ESE 28.5 km/h 49.2 km/h 90 % 0 mm
03:42 -18.2 °C -18.9 °C 34188.4 hPa SE 23.3 km/h 49.2 km/h 90 % 0 mm
03:47 -18.2 °C -18.9 °C 34178.3 hPa East 12.9 km/h 46.7 km/h 90 % 0 mm
03:57 -18.2 °C -18.9 °C 34178.3 hPa SSE 25.9 km/h 46.7 km/h 90 % 0 mm
04:02 -18.2 °C -18.9 °C 34178.3 hPa ESE 10.3 km/h 36.2 km/h 90 % 0 mm
04:07 -18.2 °C -18.9 °C 34178.3 hPa SE 20.8 km/h 36.2 km/h 91 % 0 mm
04:12 -18.2 °C -18.9 °C 34178.3 hPa SE 33.6 km/h 38.8 km/h 91 % 0 mm
04:17 -18.2 °C -18.9 °C 34178.3 hPa SE 20.8 km/h 38.8 km/h 91 % 0 mm
04:22 -18.2 °C -18.9 °C 34178.3 hPa SE 20.8 km/h 38.8 km/h 91 % 0 mm
04:27 -18.2 °C -18.9 °C 34178.3 hPa ESE 18.2 km/h 38.8 km/h 91 % 0 mm
04:32 -18.2 °C -18.9 °C 34178.3 hPa SSE 10.3 km/h 36.2 km/h 91 % 0 mm
04:37 -18.2 °C -18.9 °C 34178.3 hPa SSE 18.2 km/h 36.2 km/h 91 % 0 mm
04:42 -18.2 °C -18.9 °C 34164.7 hPa SE 18.2 km/h 36.2 km/h 91 % 0 mm
04:47 -18.1 °C -18.8 °C 34164.7 hPa South 15.6 km/h 38.8 km/h 91 % 0 mm
04:52 -18.1 °C -18.8 °C 34164.7 hPa ESE 23.3 km/h 38.8 km/h 91 % 0 mm
04:57 -18.1 °C -18.8 °C 34164.7 hPa South 12.9 km/h 36.2 km/h 91 % 0 mm
05:02 -18.1 °C -18.8 °C 34164.7 hPa SE 15.6 km/h 36.2 km/h 91 % 0 mm
05:07 -18.1 °C -18.8 °C 34164.7 hPa South 25.9 km/h 31.1 km/h 91 % 0 mm
05:12 -18.1 °C -18.8 °C 34164.7 hPa SSE 18.2 km/h 31.1 km/h 91 % 0 mm
05:17 -18.1 °C -18.8 °C 34164.7 hPa SE 12.9 km/h 38.8 km/h 90 % 0 mm
05:22 -18.1 °C -18.8 °C 34164.7 hPa SE 23.3 km/h 38.8 km/h 91 % 0 mm
05:27 -18 °C -18.7 °C 34164.7 hPa ENE 18.2 km/h 36.2 km/h 91 % 0 mm
05:32 -18 °C -18.7 °C 34154.6 hPa SE 25.9 km/h 36.2 km/h 91 % 0 mm
05:37 -18 °C -18.8 °C 34164.7 hPa SSE 12.9 km/h 36.2 km/h 90 % 0 mm
05:42 -18 °C -18.7 °C 34164.7 hPa SE 15.6 km/h 36.2 km/h 91 % 0 mm
05:47 -18 °C -18.7 °C 34164.7 hPa SSW 12.9 km/h 36.2 km/h 91 % 0 mm
05:52 -17.9 °C -18.7 °C 34154.6 hPa SSW 12.9 km/h 36.2 km/h 91 % 0 mm
05:57 -17.9 °C -18.7 °C 34164.7 hPa South 25.9 km/h 36.2 km/h 91 % 0 mm
06:02 -17.9 °C -18.7 °C 34164.7 hPa SE 15.6 km/h 36.2 km/h 91 % 0 mm
06:07 -17.9 °C -18.7 °C 34154.6 hPa ESE 12.9 km/h 33.6 km/h 91 % 0 mm
06:12 -17.9 °C -18.7 °C 34164.7 hPa SE 20.8 km/h 33.6 km/h 91 % 0 mm
06:17 -17.9 °C -18.7 °C 34164.7 hPa SSE 23.3 km/h 33.6 km/h 91 % 0 mm
06:22 -17.9 °C -18.6 °C 34154.6 hPa SE 20.8 km/h 31.1 km/h 91 % 0 mm
06:27 -17.9 °C -18.6 °C 34154.6 hPa SSE 23.3 km/h 33.6 km/h 91 % 0 mm
06:37 -17.9 °C -18.6 °C 34154.6 hPa South 10.3 km/h 38.8 km/h 91 % 0 mm
06:42 -17.9 °C -18.6 °C 34154.6 hPa SSE 18.2 km/h 38.8 km/h 91 % 0 mm
06:52 -17.9 °C -18.6 °C 34154.6 hPa SSE 31.1 km/h 31.1 km/h 91 % 0 mm
06:57 -17.9 °C -18.6 °C 34154.6 hPa SSE 15.6 km/h 33.6 km/h 91 % 0 mm
07:02 -17.8 °C -18.6 °C 0 hPa SSE 12.9 km/h 33.6 km/h 91 % 0 mm
07:07 -17.8 °C -18.6 °C 34154.6 hPa SSE 12.9 km/h 33.6 km/h 91 % 0 mm
07:12 -17.8 °C -18.6 °C 34154.6 hPa South 10.3 km/h 28.5 km/h 91 % 0 mm
07:22 -17.8 °C -18.6 °C 34154.6 hPa ESE 25.9 km/h 33.6 km/h 91 % 0 mm
07:27 -17.8 °C -18.6 °C 34154.6 hPa SSE 18.2 km/h 33.6 km/h 91 % 0 mm
07:37 -17.8 °C -18.6 °C 34154.6 hPa ESE 20.8 km/h 31.1 km/h 91 % 0 mm
07:42 -17.8 °C -18.5 °C 34154.6 hPa ESE 12.9 km/h 31.1 km/h 91 % 0 mm
07:52 -17.8 °C -18.5 °C 34154.6 hPa SE 12.9 km/h 31.1 km/h 91 % 0 mm
07:57 -17.7 °C -18.4 °C 34154.6 hPa SE 10.3 km/h 28.5 km/h 91 % 0 mm
08:02 -17.7 °C -18.4 °C 34154.6 hPa South 20.8 km/h 28.5 km/h 91 % 0 mm
08:07 -17.7 °C -18.3 °C 34154.6 hPa SE 7.7 km/h 28.5 km/h 92 % 0 mm
08:12 -17.7 °C -18.3 °C 34154.6 hPa SE 12.9 km/h 25.9 km/h 92 % 0 mm
08:17 -17.7 °C -18.3 °C 34164.7 hPa SE 12.9 km/h 25.9 km/h 92 % 0 mm
08:22 -17.7 °C -18.3 °C 34154.6 hPa SE 12.9 km/h 25.9 km/h 92 % 0 mm
08:27 -17.7 °C -18.3 °C 34164.7 hPa SSE 5.1 km/h 31.1 km/h 92 % 0 mm
08:32 -17.7 °C -18.3 °C 34164.7 hPa SE 10.3 km/h 31.1 km/h 92 % 0 mm
08:37 -17.7 °C -18.3 °C 34164.7 hPa SE 18.2 km/h 23.3 km/h 92 % 0 mm
08:42 -17.7 °C -18.3 °C 34154.6 hPa SSE 7.7 km/h 23.3 km/h 92 % 0 mm
08:47 -17.7 °C -18.3 °C 34164.7 hPa ESE 10.3 km/h 23.3 km/h 92 % 0 mm
08:52 -17.7 °C -18.3 °C 34164.7 hPa SSE 7.7 km/h 23.3 km/h 92 % 0 mm
08:57 -17.6 °C -18.2 °C 34164.7 hPa ESE 20.8 km/h 23.3 km/h 92 % 0 mm
09:02 -17.7 °C -18.3 °C 34164.7 hPa SE 18.2 km/h 23.3 km/h 92 % 0 mm
09:07 -17.6 °C -18.2 °C 34164.7 hPa SE 10.3 km/h 23.3 km/h 93 % 0 mm
09:12 -17.6 °C -18.2 °C 34164.7 hPa South 12.9 km/h 25.9 km/h 92 % 0 mm
09:17 -17.6 °C -18.2 °C 34164.7 hPa SSE 12.9 km/h 25.9 km/h 93 % 0 mm
09:22 -17.6 °C -18.2 °C 34164.7 hPa SSE 7.7 km/h 25.9 km/h 93 % 0 mm
09:27 -17.6 °C -18.2 °C 34164.7 hPa SE 15.6 km/h 25.9 km/h 93 % 0 mm
09:32 -17.6 °C -18.2 °C 34164.7 hPa SE 7.7 km/h 25.9 km/h 93 % 0 mm
09:37 -17.6 °C -18.1 °C 34164.7 hPa SE 7.7 km/h 25.9 km/h 93 % 0 mm
09:42 -17.6 °C -18.1 °C 34164.7 hPa SE 5.1 km/h 18.2 km/h 93 % 0 mm
09:47 -17.6 °C -18.1 °C 34164.7 hPa ESE 25.9 km/h 25.9 km/h 93 % 0 mm
09:52 -17.6 °C -18.1 °C 34164.7 hPa SE 12.9 km/h 25.9 km/h 93 % 0 mm
09:57 -17.6 °C -18.1 °C 34178.3 hPa SSE 7.7 km/h 25.9 km/h 93 % 0 mm
10:02 -17.5 °C -18.1 °C 34178.3 hPa SSE 10.3 km/h 25.9 km/h 93 % 0 mm
10:07 -17.5 °C -18.1 °C 34178.3 hPa SE 15.6 km/h 18.2 km/h 93 % 0 mm
10:12 -17.4 °C -18 °C 34178.3 hPa SSE 10.3 km/h 20.8 km/h 93 % 0 mm
10:17 -17.4 °C -18 °C 34178.3 hPa SSE 15.6 km/h 20.8 km/h 93 % 0 mm
10:22 -17.4 °C -18 °C 34178.3 hPa SSE 10.3 km/h 20.8 km/h 93 % 0 mm
10:27 -17.4 °C -18 °C 34178.3 hPa South 12.9 km/h 18.2 km/h 93 % 0 mm
10:32 -17.4 °C -17.9 °C 34178.3 hPa SSE 7.7 km/h 20.8 km/h 93 % 0 mm
10:37 -17.4 °C -17.9 °C 34178.3 hPa SSE 10.3 km/h 20.8 km/h 93 % 0 mm
10:47 -17.3 °C -17.9 °C 34178.3 hPa SE 5.1 km/h 18.2 km/h 93 % 0 mm
10:52 -17.3 °C -17.9 °C 34178.3 hPa SE 12.9 km/h 18.2 km/h 93 % 0 mm
11:02 -17.3 °C -17.8 °C 34178.3 hPa SE 12.9 km/h 20.8 km/h 93 % 0 mm
11:07 -17.3 °C -17.8 °C 34178.3 hPa SSE 5.1 km/h 20.8 km/h 93 % 0 mm
11:17 -17.3 °C -17.8 °C 34178.3 hPa South 7.7 km/h 18.2 km/h 93 % 0 mm
11:22 -17.3 °C -17.8 °C 34178.3 hPa South 7.7 km/h 15.6 km/h 94 % 0 mm
11:32 -17.2 °C -17.8 °C 34178.3 hPa SSE 5.1 km/h 18.2 km/h 93 % 0 mm
11:37 -17.2 °C -17.8 °C 34178.3 hPa SE 12.9 km/h 18.2 km/h 93 % 0 mm
11:42 -17.2 °C -17.7 °C 34178.3 hPa SSW 10.3 km/h 18.2 km/h 93 % 0 mm
11:47 -17.2 °C -17.7 °C 34178.3 hPa SE 7.7 km/h 15.6 km/h 93 % 0 mm
11:52 -17.1 °C -17.6 °C 34178.3 hPa South 5.1 km/h 15.6 km/h 94 % 0 mm
11:57 -17.1 °C -17.6 °C 34178.3 hPa SSE 5.1 km/h 15.6 km/h 94 % 0 mm
12:02 -17.1 °C -17.6 °C 34178.3 hPa SSE 10.3 km/h 15.6 km/h 94 % 0 mm
12:07 -17.1 °C -17.6 °C 34178.3 hPa South 15.6 km/h 18.2 km/h 94 % 0 mm
12:12 -17.1 °C -17.6 °C 34178.3 hPa SSE 5.1 km/h 18.2 km/h 94 % 0 mm
12:17 -17.1 °C -17.6 °C 34178.3 hPa SW 5.1 km/h 15.6 km/h 94 % 0 mm
12:22 -17.1 °C -17.6 °C 34178.3 hPa South 10.3 km/h 15.6 km/h 94 % 0 mm
12:27 -17.1 °C -17.6 °C 34178.3 hPa South 10.3 km/h 20.8 km/h 94 % 7.62 mm
12:32 -17.1 °C -17.6 °C 34178.3 hPa South 10.3 km/h 20.8 km/h 94 % 7.62 mm
12:37 -17.1 °C -17.6 °C 34178.3 hPa SSE 10.3 km/h 25.9 km/h 94 % 12.7 mm
12:42 -17.1 °C -17.6 °C 34178.3 hPa SE 10.3 km/h 25.9 km/h 94 % 12.7 mm
12:47 -17 °C -17.5 °C 34178.3 hPa South 7.7 km/h 20.8 km/h 94 % 12.7 mm
12:52 -17 °C -17.5 °C 34178.3 hPa SSE 7.7 km/h 15.6 km/h 94 % 12.7 mm
12:57 -17 °C -17.5 °C 34178.3 hPa SSE 2.6 km/h 12.9 km/h 94 % 12.7 mm
13:02 -16.9 °C -17.4 °C 34178.3 hPa SSE 5.1 km/h 15.6 km/h 94 % 12.7 mm
13:07 -16.9 °C -17.4 °C 34178.3 hPa SSE 7.7 km/h 15.6 km/h 94 % 12.7 mm
13:12 -16.9 °C -17.4 °C 34178.3 hPa South 5.1 km/h 15.6 km/h 94 % 12.7 mm
13:17 -16.9 °C -17.4 °C 34178.3 hPa SSE 5.1 km/h 15.6 km/h 94 % 12.7 mm
13:22 -16.9 °C -17.4 °C 34178.3 hPa SE 5.1 km/h 15.6 km/h 94 % 12.7 mm
13:27 -16.9 °C -17.4 °C 34178.3 hPa SE 2.6 km/h 15.6 km/h 94 % 12.7 mm
13:32 -16.9 °C -17.4 °C 34178.3 hPa South 10.3 km/h 15.6 km/h 94 % 12.7 mm
13:37 -16.8 °C -17.3 °C 34178.3 hPa SSE 12.9 km/h 15.6 km/h 94 % 12.7 mm
13:42 -16.8 °C -17.3 °C 34178.3 hPa SSE 5.1 km/h 15.6 km/h 94 % 12.7 mm
13:47 -16.8 °C -17.3 °C 34178.3 hPa SSW 10.3 km/h 15.6 km/h 94 % 12.7 mm
13:52 -16.8 °C -17.3 °C 34178.3 hPa SSE 7.7 km/h 18.2 km/h 94 % 12.7 mm
13:57 -16.8 °C -17.3 °C 34178.3 hPa South 10.3 km/h 18.2 km/h 94 % 12.7 mm
14:02 -16.8 °C -17.3 °C 34178.3 hPa South 2.6 km/h 18.2 km/h 94 % 12.7 mm
14:07 -16.8 °C -17.3 °C 34178.3 hPa SSW 5.1 km/h 15.6 km/h 94 % 12.7 mm
14:12 -16.8 °C -17.3 °C 34178.3 hPa SW 5.1 km/h 15.6 km/h 94 % 12.7 mm
14:17 -16.7 °C -17.2 °C 34178.3 hPa South 12.9 km/h 15.6 km/h 94 % 12.7 mm
14:27 -16.7 °C -17.2 °C 34178.3 hPa SSE 5.1 km/h 20.8 km/h 94 % 12.7 mm
14:32 -16.7 °C -17.2 °C 34178.3 hPa South 5.1 km/h 20.8 km/h 94 % 12.7 mm
14:47 -16.7 °C -17.2 °C 34178.3 hPa South 10.3 km/h 15.6 km/h 94 % 12.7 mm
14:52 -16.6 °C -17.1 °C 34178.3 hPa SW 15.6 km/h 18.2 km/h 94 % 12.7 mm
14:57 -16.6 °C -17.1 °C 34178.3 hPa SW 7.7 km/h 18.2 km/h 94 % 12.7 mm
15:02 -16.6 °C -17.1 °C 34178.3 hPa South 12.9 km/h 15.6 km/h 94 % 12.7 mm
15:07 -16.6 °C -17.1 °C 34178.3 hPa SSW 10.3 km/h 18.2 km/h 94 % 12.7 mm
15:12 -16.6 °C -17.1 °C 34178.3 hPa WSW 20.8 km/h 18.2 km/h 94 % 12.7 mm
15:17 -16.5 °C -17 °C 34178.3 hPa South 10.3 km/h 20.8 km/h 94 % 12.7 mm
15:22 -16.4 °C -16.9 °C 34178.3 hPa SW 12.9 km/h 23.3 km/h 94 % 12.7 mm
15:27 -16.4 °C -16.9 °C 34178.3 hPa SSW 15.6 km/h 23.3 km/h 94 % 12.7 mm
15:32 -16.4 °C -16.9 °C 34188.4 hPa SSE 10.3 km/h 25.9 km/h 94 % 12.7 mm
15:37 -16.4 °C -16.9 °C 34188.4 hPa SSW 10.3 km/h 25.9 km/h 94 % 12.7 mm
15:42 -16.4 °C -16.9 °C 34188.4 hPa SSW 5.1 km/h 20.8 km/h 94 % 12.7 mm
15:47 -16.4 °C -16.9 °C 34188.4 hPa SE 5.1 km/h 20.8 km/h 94 % 12.7 mm
15:52 -16.4 °C -16.9 °C 34178.3 hPa South 5.1 km/h 20.8 km/h 94 % 12.7 mm
15:57 -16.4 °C -16.9 °C 34178.3 hPa SSE 5.1 km/h 20.8 km/h 94 % 12.7 mm
16:02 -16.4 °C -16.9 °C 34178.3 hPa SSE 7.7 km/h 15.6 km/h 94 % 7.62 mm
16:07 -16.4 °C -16.9 °C 34178.3 hPa SSE 10.3 km/h 20.8 km/h 94 % 12.7 mm
16:12 -16.4 °C -16.9 °C 34188.4 hPa SSE 7.7 km/h 20.8 km/h 94 % 12.7 mm
16:17 -16.4 °C -16.9 °C 34188.4 hPa SSW 7.7 km/h 20.8 km/h 94 % 12.7 mm
16:22 -16.4 °C -16.9 °C 34188.4 hPa South 2.6 km/h 18.2 km/h 94 % 12.7 mm
16:27 -16.4 °C -16.9 °C 34188.4 hPa SW 5.1 km/h 18.2 km/h 94 % 12.7 mm
16:32 -16.4 °C -16.9 °C 34198.6 hPa SSW 5.1 km/h 15.6 km/h 94 % 12.7 mm
16:37 -16.4 °C -16.9 °C 34198.6 hPa SSE 7.7 km/h 15.6 km/h 94 % 12.7 mm
16:42 -16.4 °C -16.9 °C 34198.6 hPa SSE 10.3 km/h 12.9 km/h 94 % 7.62 mm
16:47 -16.4 °C -16.9 °C 34198.6 hPa SSE 7.7 km/h 18.2 km/h 94 % 7.62 mm
16:52 -16.4 °C -16.9 °C 34198.6 hPa South 7.7 km/h 18.2 km/h 94 % 7.62 mm
16:57 -16.3 °C -16.8 °C 34198.6 hPa SSE 7.7 km/h 18.2 km/h 94 % 7.62 mm
17:02 -16.3 °C -16.8 °C 34198.6 hPa SE 7.7 km/h 12.9 km/h 94 % 7.62 mm
17:07 -16.3 °C -16.8 °C 34198.6 hPa South 5.1 km/h 12.9 km/h 94 % 0 mm
17:12 -16.3 °C -16.8 °C 34198.6 hPa SSE 12.9 km/h 12.9 km/h 94 % 0 mm
17:17 -16.3 °C -16.8 °C 34198.6 hPa SSE 10.3 km/h 12.9 km/h 94 % 0 mm
17:27 -16.3 °C -16.8 °C 34198.6 hPa SE 7.7 km/h 18.2 km/h 94 % 7.62 mm
17:32 -16.3 °C -16.8 °C 34198.6 hPa SE 2.6 km/h 18.2 km/h 94 % 7.62 mm
17:42 -16.3 °C -16.8 °C 34212.1 hPa SSE 7.7 km/h 15.6 km/h 94 % 7.62 mm
17:47 -16.3 °C -16.8 °C 34198.6 hPa SSE 5.1 km/h 15.6 km/h 94 % 7.62 mm
17:57 -16.3 °C -16.8 °C 34198.6 hPa SSE 7.7 km/h 15.6 km/h 94 % 7.62 mm
18:02 -16.3 °C -16.8 °C 34198.6 hPa SSE 5.1 km/h 15.6 km/h 94 % 7.62 mm
18:07 -16.2 °C -16.7 °C 34212.1 hPa SE 12.9 km/h 15.6 km/h 94 % 12.7 mm
18:12 -16.2 °C -16.7 °C 34212.1 hPa SSE 10.3 km/h 15.6 km/h 94 % 12.7 mm
18:17 -16.2 °C -16.7 °C 34212.1 hPa South 5.1 km/h 12.9 km/h 94 % 12.7 mm
18:22 -16.2 °C -16.7 °C 34222.3 hPa South 5.1 km/h 12.9 km/h 94 % 7.62 mm
18:27 -16.2 °C -16.7 °C 34222.3 hPa SSE 5.1 km/h 10.3 km/h 94 % 7.62 mm
18:32 -16.2 °C -16.7 °C 34222.3 hPa SSW 5.1 km/h 12.9 km/h 94 % 7.62 mm
18:37 -16.2 °C -16.7 °C 34222.3 hPa SSE 2.6 km/h 12.9 km/h 94 % 7.62 mm
18:42 -16.2 °C -16.7 °C 34222.3 hPa South 7.7 km/h 12.9 km/h 94 % 7.62 mm
18:47 -16.2 °C -16.7 °C 34222.3 hPa South 12.9 km/h 15.6 km/h 94 % 7.62 mm
18:52 -16.2 °C -16.7 °C 34222.3 hPa SE 10.3 km/h 15.6 km/h 94 % 7.62 mm
18:57 -16.1 °C -16.6 °C 34222.3 hPa SSE 7.7 km/h 15.6 km/h 94 % 7.62 mm
19:02 -16.1 °C -16.6 °C 34222.3 hPa South 2.6 km/h 15.6 km/h 94 % 0 mm
19:07 -16.1 °C -16.6 °C 34222.3 hPa SSE 10.3 km/h 12.9 km/h 94 % 0 mm
19:12 -16.1 °C -16.6 °C 34222.3 hPa South 2.6 km/h 12.9 km/h 94 % 0 mm
19:17 -16.1 °C -16.6 °C 34222.3 hPa SSW 5.1 km/h 15.6 km/h 94 % 0 mm
19:22 -16.1 °C -16.6 °C 34222.3 hPa South 5.1 km/h 15.6 km/h 94 % 0 mm
19:27 -16.1 °C -16.6 °C 34235.8 hPa SW 2.6 km/h 15.6 km/h 94 % 0 mm
19:32 -16.1 °C -16.6 °C 34235.8 hPa South 5.1 km/h 12.9 km/h 94 % 0 mm
19:37 -16.1 °C -16.6 °C 34235.8 hPa SSE 5.1 km/h 12.9 km/h 94 % 0 mm
19:42 -16.1 °C -16.6 °C 34235.8 hPa SSW 5.1 km/h 12.9 km/h 94 % 0 mm
19:47 -16.1 °C -16.6 °C 34235.8 hPa South 2.6 km/h 12.9 km/h 94 % 0 mm
19:52 -16.1 °C -16.6 °C 34235.8 hPa SSE 2.6 km/h 10.3 km/h 94 % 0 mm
19:57 -16.1 °C -16.6 °C 34235.8 hPa ESE 7.7 km/h 10.3 km/h 94 % 0 mm
20:02 -16.1 °C -16.6 °C 34235.8 hPa SSE 7.7 km/h 10.3 km/h 94 % 0 mm
20:07 -16.1 °C -16.6 °C 34235.8 hPa SSE 5.1 km/h 10.3 km/h 94 % 0 mm
20:12 -16.1 °C -16.6 °C 34235.8 hPa SSE 7.7 km/h 10.3 km/h 94 % 0 mm
20:17 -16.1 °C -16.6 °C 34235.8 hPa SE 10.3 km/h 12.9 km/h 94 % 0 mm
20:22 -16.1 °C -16.6 °C 34235.8 hPa SE 10.3 km/h 12.9 km/h 94 % 0 mm
20:27 -16 °C -16.5 °C 34235.8 hPa South 12.9 km/h 12.9 km/h 94 % 0 mm
20:32 -16 °C -16.5 °C 34246 hPa South 7.7 km/h 15.6 km/h 94 % 0 mm
20:37 -16 °C -16.5 °C 34246 hPa SSW 10.3 km/h 15.6 km/h 94 % 0 mm
20:42 -16 °C -16.5 °C 34246 hPa SSE 5.1 km/h 15.6 km/h 94 % 0 mm
Weerstation Almere Buiten
Gegevens verzameld door Weather Underground - 4 mb

Script ontwikkeld door  Jim McMurry - jmcmurry@mwt.net Aangepast voor de template door  Wim van der Kuil - Leuven-Template.eu

U vindt ons ook hier:

Het Weer Aktueel

UK Metoffice

European Weather Network

Weather Underground

AWEKAS